sensor_id;sensor_type;location;lat;lon;timestamp;temperature;humidity
37478;DHT22;23334;54.316;10.182;2022-10-23T00:01:27;11.90;99.90
37478;DHT22;23334;54.316;10.182;2022-10-23T00:04:01;12.10;99.90
37478;DHT22;23334;54.316;10.182;2022-10-23T00:06:28;11.80;99.90
37478;DHT22;23334;54.316;10.182;2022-10-23T00:08:54;11.80;99.90
37478;DHT22;23334;54.316;10.182;2022-10-23T00:11:22;11.90;99.90
37478;DHT22;23334;54.316;10.182;2022-10-23T00:13:50;12.00;99.90
37478;DHT22;23334;54.316;10.182;2022-10-23T00:16:17;12.10;99.90
37478;DHT22;23334;54.316;10.182;2022-10-23T00:18:43;12.20;99.90
37478;DHT22;23334;54.316;10.182;2022-10-23T00:21:10;12.10;99.90
37478;DHT22;23334;54.316;10.182;2022-10-23T00:23:36;11.70;99.90
37478;DHT22;23334;54.316;10.182;2022-10-23T00:26:03;12.10;99.90
37478;DHT22;23334;54.316;10.182;2022-10-23T00:28:28;11.80;99.90
37478;DHT22;23334;54.316;10.182;2022-10-23T00:30:54;12.30;99.90
37478;DHT22;23334;54.316;10.182;2022-10-23T00:33:19;11.80;99.90
37478;DHT22;23334;54.316;10.182;2022-10-23T00:35:45;12.30;99.90
37478;DHT22;23334;54.316;10.182;2022-10-23T00:38:11;12.00;99.90
37478;DHT22;23334;54.316;10.182;2022-10-23T00:40:37;11.70;99.90
37478;DHT22;23334;54.316;10.182;2022-10-23T00:43:03;11.70;99.90
37478;DHT22;23334;54.316;10.182;2022-10-23T00:45:30;12.00;99.90
37478;DHT22;23334;54.316;10.182;2022-10-23T00:47:58;11.70;99.90
37478;DHT22;23334;54.316;10.182;2022-10-23T00:50:26;12.00;99.90
37478;DHT22;23334;54.316;10.182;2022-10-23T00:52:53;11.60;99.90
37478;DHT22;23334;54.316;10.182;2022-10-23T00:55:22;11.60;99.90
37478;DHT22;23334;54.316;10.182;2022-10-23T00:57:48;11.40;99.90
37478;DHT22;23334;54.316;10.182;2022-10-23T01:00:27;11.80;99.90
37478;DHT22;23334;54.316;10.182;2022-10-23T01:02:53;11.50;99.90
37478;DHT22;23334;54.316;10.182;2022-10-23T01:05:24;11.40;99.90
37478;DHT22;23334;54.316;10.182;2022-10-23T01:08:06;11.50;99.90
37478;DHT22;23334;54.316;10.182;2022-10-23T01:10:43;11.70;99.90
37478;DHT22;23334;54.316;10.182;2022-10-23T01:13:40;11.20;99.90
37478;DHT22;23334;54.316;10.182;2022-10-23T01:16:16;11.20;99.90
37478;DHT22;23334;54.316;10.182;2022-10-23T01:18:57;11.10;99.90
37478;DHT22;23334;54.316;10.182;2022-10-23T01:21:33;11.10;99.90
37478;DHT22;23334;54.316;10.182;2022-10-23T01:24:09;11.70;99.90
37478;DHT22;23334;54.316;10.182;2022-10-23T01:29:16;11.20;99.90
37478;DHT22;23334;54.316;10.182;2022-10-23T01:31:57;11.20;99.90
37478;DHT22;23334;54.316;10.182;2022-10-23T01:34:31;11.30;99.90
37478;DHT22;23334;54.316;10.182;2022-10-23T01:37:00;11.50;99.90
37478;DHT22;23334;54.316;10.182;2022-10-23T01:39:38;11.40;99.90
37478;DHT22;23334;54.316;10.182;2022-10-23T01:42:16;11.00;99.90
37478;DHT22;23334;54.316;10.182;2022-10-23T01:44:54;10.90;99.90
37478;DHT22;23334;54.316;10.182;2022-10-23T01:47:25;10.90;99.90
37478;DHT22;23334;54.316;10.182;2022-10-23T01:49:53;10.90;99.90
37478;DHT22;23334;54.316;10.182;2022-10-23T01:52:20;10.80;99.90
37478;DHT22;23334;54.316;10.182;2022-10-23T01:54:47;10.80;99.90
37478;DHT22;23334;54.316;10.182;2022-10-23T01:57:16;11.10;99.90
37478;DHT22;23334;54.316;10.182;2022-10-23T01:59:51;10.60;99.90
37478;DHT22;23334;54.316;10.182;2022-10-23T02:02:19;10.60;99.90
37478;DHT22;23334;54.316;10.182;2022-10-23T02:05:01;10.90;99.90
37478;DHT22;23334;54.316;10.182;2022-10-23T02:07:27;10.60;99.90
37478;DHT22;23334;54.316;10.182;2022-10-23T02:09:54;10.90;99.90
37478;DHT22;23334;54.316;10.182;2022-10-23T02:12:55;10.50;99.90
37478;DHT22;23334;54.316;10.182;2022-10-23T02:15:35;10.60;99.90
37478;DHT22;23334;54.316;10.182;2022-10-23T02:18:05;10.50;99.90
37478;DHT22;23334;54.316;10.182;2022-10-23T02:20:42;10.70;99.90
37478;DHT22;23334;54.316;10.182;2022-10-23T02:23:21;10.60;99.90
37478;DHT22;23334;54.316;10.182;2022-10-23T02:25:52;10.50;99.90
37478;DHT22;23334;54.316;10.182;2022-10-23T02:28:23;10.70;99.90
37478;DHT22;23334;54.316;10.182;2022-10-23T02:30:50;10.90;99.90
37478;DHT22;23334;54.316;10.182;2022-10-23T02:33:16;10.80;99.90
37478;DHT22;23334;54.316;10.182;2022-10-23T02:35:42;10.70;99.90
37478;DHT22;23334;54.316;10.182;2022-10-23T02:38:37;10.80;99.90
37478;DHT22;23334;54.316;10.182;2022-10-23T02:47:04;10.60;99.90
37478;DHT22;23334;54.316;10.182;2022-10-23T02:52:57;10.70;99.90
37478;DHT22;23334;54.316;10.182;2022-10-23T02:59:08;10.60;99.90
37478;DHT22;23334;54.316;10.182;2022-10-23T03:01:18;10.50;99.90
37478;DHT22;23334;54.316;10.182;2022-10-23T03:03:51;10.60;99.90
37478;DHT22;23334;54.316;10.182;2022-10-23T03:06:18;10.60;99.90
37478;DHT22;23334;54.316;10.182;2022-10-23T03:09:03;10.40;99.90
37478;DHT22;23334;54.316;10.182;2022-10-23T03:11:28;10.40;99.90
37478;DHT22;23334;54.316;10.182;2022-10-23T03:13:54;10.60;99.90
37478;DHT22;23334;54.316;10.182;2022-10-23T03:16:20;10.50;99.90
37478;DHT22;23334;54.316;10.182;2022-10-23T03:18:45;10.60;99.90
37478;DHT22;23334;54.316;10.182;2022-10-23T03:21:11;10.80;99.90
37478;DHT22;23334;54.316;10.182;2022-10-23T03:23:36;10.70;99.90
37478;DHT22;23334;54.316;10.182;2022-10-23T03:26:02;10.50;99.90
37478;DHT22;23334;54.316;10.182;2022-10-23T03:28:27;10.60;99.90
37478;DHT22;23334;54.316;10.182;2022-10-23T03:30:53;10.60;99.90
37478;DHT22;23334;54.316;10.182;2022-10-23T03:33:18;10.70;99.90
37478;DHT22;23334;54.316;10.182;2022-10-23T03:35:44;10.90;99.90
37478;DHT22;23334;54.316;10.182;2022-10-23T03:38:09;10.80;99.90
37478;DHT22;23334;54.316;10.182;2022-10-23T03:40:35;10.70;99.90
37478;DHT22;23334;54.316;10.182;2022-10-23T03:43:00;10.60;99.90
37478;DHT22;23334;54.316;10.182;2022-10-23T03:45:26;10.60;99.90
37478;DHT22;23334;54.316;10.182;2022-10-23T03:47:51;10.80;99.90
37478;DHT22;23334;54.316;10.182;2022-10-23T03:50:18;11.10;99.90
37478;DHT22;23334;54.316;10.182;2022-10-23T03:52:44;11.00;99.90
37478;DHT22;23334;54.316;10.182;2022-10-23T03:55:10;10.50;99.90
37478;DHT22;23334;54.316;10.182;2022-10-23T03:57:36;10.50;99.90
37478;DHT22;23334;54.316;10.182;2022-10-23T04:00:02;10.50;99.90
37478;DHT22;23334;54.316;10.182;2022-10-23T04:02:28;10.60;99.90
37478;DHT22;23334;54.316;10.182;2022-10-23T04:04:53;10.40;99.90
37478;DHT22;23334;54.316;10.182;2022-10-23T04:07:19;10.30;99.90
37478;DHT22;23334;54.316;10.182;2022-10-23T04:09:45;10.30;99.90
37478;DHT22;23334;54.316;10.182;2022-10-23T04:12:10;10.20;99.90
37478;DHT22;23334;54.316;10.182;2022-10-23T04:14:36;10.20;99.90
37478;DHT22;23334;54.316;10.182;2022-10-23T04:17:01;10.50;99.90
37478;DHT22;23334;54.316;10.182;2022-10-23T04:19:27;10.40;99.90
37478;DHT22;23334;54.316;10.182;2022-10-23T04:21:52;10.10;99.90
37478;DHT22;23334;54.316;10.182;2022-10-23T04:24:18;10.40;99.90
37478;DHT22;23334;54.316;10.182;2022-10-23T04:26:43;11.10;99.90
37478;DHT22;23334;54.316;10.182;2022-10-23T04:29:09;10.40;99.90
37478;DHT22;23334;54.316;10.182;2022-10-23T04:31:34;10.30;99.90
37478;DHT22;23334;54.316;10.182;2022-10-23T04:34:00;10.30;99.90
37478;DHT22;23334;54.316;10.182;2022-10-23T04:36:25;10.30;99.90
37478;DHT22;23334;54.316;10.182;2022-10-23T04:38:51;10.50;99.90
37478;DHT22;23334;54.316;10.182;2022-10-23T04:41:17;10.70;99.90
37478;DHT22;23334;54.316;10.182;2022-10-23T04:43:43;10.70;99.90
37478;DHT22;23334;54.316;10.182;2022-10-23T04:46:08;10.60;99.90
37478;DHT22;23334;54.316;10.182;2022-10-23T04:48:34;10.40;99.90
37478;DHT22;23334;54.316;10.182;2022-10-23T04:51:02;10.40;99.90
37478;DHT22;23334;54.316;10.182;2022-10-23T04:53:28;10.80;99.90
37478;DHT22;23334;54.316;10.182;2022-10-23T04:55:56;10.40;99.90
37478;DHT22;23334;54.316;10.182;2022-10-23T04:58:23;10.60;99.90
37478;DHT22;23334;54.316;10.182;2022-10-23T05:00:50;10.50;99.90
37478;DHT22;23334;54.316;10.182;2022-10-23T05:03:17;10.60;99.90
37478;DHT22;23334;54.316;10.182;2022-10-23T05:05:43;10.50;99.90
37478;DHT22;23334;54.316;10.182;2022-10-23T05:08:10;10.60;99.90
37478;DHT22;23334;54.316;10.182;2022-10-23T05:10:35;10.50;99.90
37478;DHT22;23334;54.316;10.182;2022-10-23T05:13:01;10.70;99.90
37478;DHT22;23334;54.316;10.182;2022-10-23T05:15:27;10.60;99.90
37478;DHT22;23334;54.316;10.182;2022-10-23T05:17:56;10.40;99.90
37478;DHT22;23334;54.316;10.182;2022-10-23T05:20:25;10.40;99.90
37478;DHT22;23334;54.316;10.182;2022-10-23T05:22:54;10.30;99.90
37478;DHT22;23334;54.316;10.182;2022-10-23T05:25:21;10.40;99.90
37478;DHT22;23334;54.316;10.182;2022-10-23T05:27:46;10.50;99.90
37478;DHT22;23334;54.316;10.182;2022-10-23T05:30:12;10.50;99.90
37478;DHT22;23334;54.316;10.182;2022-10-23T05:32:38;10.20;99.90
37478;DHT22;23334;54.316;10.182;2022-10-23T05:35:15;10.30;99.90
37478;DHT22;23334;54.316;10.182;2022-10-23T05:37:44;10.20;99.90
37478;DHT22;23334;54.316;10.182;2022-10-23T05:40:11;10.30;99.90
37478;DHT22;23334;54.316;10.182;2022-10-23T05:42:37;10.30;99.90
37478;DHT22;23334;54.316;10.182;2022-10-23T05:45:03;10.20;99.90
37478;DHT22;23334;54.316;10.182;2022-10-23T05:47:28;10.10;99.90
37478;DHT22;23334;54.316;10.182;2022-10-23T05:49:56;10.10;99.90
37478;DHT22;23334;54.316;10.182;2022-10-23T05:52:21;10.20;99.90
37478;DHT22;23334;54.316;10.182;2022-10-23T05:54:49;10.30;99.90
37478;DHT22;23334;54.316;10.182;2022-10-23T05:57:14;9.90;99.90
37478;DHT22;23334;54.316;10.182;2022-10-23T05:59:40;10.00;99.90
37478;DHT22;23334;54.316;10.182;2022-10-23T06:02:05;10.00;99.90
37478;DHT22;23334;54.316;10.182;2022-10-23T06:04:33;10.20;99.90
37478;DHT22;23334;54.316;10.182;2022-10-23T06:06:58;10.20;99.90
37478;DHT22;23334;54.316;10.182;2022-10-23T06:09:24;10.00;99.90
37478;DHT22;23334;54.316;10.182;2022-10-23T06:11:49;10.20;99.90
37478;DHT22;23334;54.316;10.182;2022-10-23T06:14:15;10.00;99.90
37478;DHT22;23334;54.316;10.182;2022-10-23T06:16:40;10.00;99.90
37478;DHT22;23334;54.316;10.182;2022-10-23T06:19:09;10.20;99.90
37478;DHT22;23334;54.316;10.182;2022-10-23T06:21:38;10.10;99.90
37478;DHT22;23334;54.316;10.182;2022-10-23T06:24:07;10.50;99.90
37478;DHT22;23334;54.316;10.182;2022-10-23T06:26:33;10.20;99.90
37478;DHT22;23334;54.316;10.182;2022-10-23T06:28:59;10.20;99.90
37478;DHT22;23334;54.316;10.182;2022-10-23T06:31:24;10.20;99.90
37478;DHT22;23334;54.316;10.182;2022-10-23T06:33:52;10.50;99.90
37478;DHT22;23334;54.316;10.182;2022-10-23T06:36:18;10.30;99.90
37478;DHT22;23334;54.316;10.182;2022-10-23T06:38:43;10.10;99.90
37478;DHT22;23334;54.316;10.182;2022-10-23T06:41:18;10.20;99.90
37478;DHT22;23334;54.316;10.182;2022-10-23T06:43:46;10.20;99.90
37478;DHT22;23334;54.316;10.182;2022-10-23T06:46:12;10.80;99.90
37478;DHT22;23334;54.316;10.182;2022-10-23T06:48:37;10.20;99.90
37478;DHT22;23334;54.316;10.182;2022-10-23T06:51:07;10.50;99.90
37478;DHT22;23334;54.316;10.182;2022-10-23T06:53:33;10.30;99.90
37478;DHT22;23334;54.316;10.182;2022-10-23T06:56:00;10.10;99.90
37478;DHT22;23334;54.316;10.182;2022-10-23T06:58:26;10.50;99.90
37478;DHT22;23334;54.316;10.182;2022-10-23T07:00:52;10.70;99.90
37478;DHT22;23334;54.316;10.182;2022-10-23T07:03:17;10.30;99.90
37478;DHT22;23334;54.316;10.182;2022-10-23T07:05:43;10.40;99.90
37478;DHT22;23334;54.316;10.182;2022-10-23T07:08:14;10.60;99.90
37478;DHT22;23334;54.316;10.182;2022-10-23T07:10:40;10.80;99.90
37478;DHT22;23334;54.316;10.182;2022-10-23T07:13:09;10.90;99.90
37478;DHT22;23334;54.316;10.182;2022-10-23T07:15:35;10.80;99.90
37478;DHT22;23334;54.316;10.182;2022-10-23T07:18:01;10.50;99.90
37478;DHT22;23334;54.316;10.182;2022-10-23T07:20:26;11.00;99.90
37478;DHT22;23334;54.316;10.182;2022-10-23T07:22:55;10.70;99.90
37478;DHT22;23334;54.316;10.182;2022-10-23T07:25:21;10.60;99.90
37478;DHT22;23334;54.316;10.182;2022-10-23T07:27:47;10.90;99.90
37478;DHT22;23334;54.316;10.182;2022-10-23T10:04:36;15.60;99.90
37478;DHT22;23334;54.316;10.182;2022-10-23T10:07:05;15.80;99.90
37478;DHT22;23334;54.316;10.182;2022-10-23T10:09:31;15.80;99.90
37478;DHT22;23334;54.316;10.182;2022-10-23T10:12:27;16.10;99.90
37478;DHT22;23334;54.316;10.182;2022-10-23T10:17:41;15.70;99.90
37478;DHT22;23334;54.316;10.182;2022-10-23T10:20:24;15.80;99.90
37478;DHT22;23334;54.316;10.182;2022-10-23T10:23:06;15.30;99.90
37478;DHT22;23334;54.316;10.182;2022-10-23T10:28:30;15.70;99.90
37478;DHT22;23334;54.316;10.182;2022-10-23T10:31:19;16.10;99.90
37478;DHT22;23334;54.316;10.182;2022-10-23T10:36:42;16.50;99.90
37478;DHT22;23334;54.316;10.182;2022-10-23T10:39:15;16.20;99.90
37478;DHT22;23334;54.316;10.182;2022-10-23T10:47:24;16.60;99.90
37478;DHT22;23334;54.316;10.182;2022-10-23T10:50:16;18.00;99.90
37478;DHT22;23334;54.316;10.182;2022-10-23T10:53:09;16.80;99.90
37478;DHT22;23334;54.316;10.182;2022-10-23T10:55:41;16.40;99.90
37478;DHT22;23334;54.316;10.182;2022-10-23T11:00:54;16.10;99.90
37478;DHT22;23334;54.316;10.182;2022-10-23T11:03:41;15.50;99.90
37478;DHT22;23334;54.316;10.182;2022-10-23T11:06:15;15.50;99.90
37478;DHT22;23334;54.316;10.182;2022-10-23T11:08:42;15.20;99.90
37478;DHT22;23334;54.316;10.182;2022-10-23T11:11:17;15.10;99.90
37478;DHT22;23334;54.316;10.182;2022-10-23T11:13:43;15.00;99.90
37478;DHT22;23334;54.316;10.182;2022-10-23T11:16:13;15.10;99.90
37478;DHT22;23334;54.316;10.182;2022-10-23T11:18:43;14.80;99.90
37478;DHT22;23334;54.316;10.182;2022-10-23T11:24:15;15.60;99.90
37478;DHT22;23334;54.316;10.182;2022-10-23T11:27:21;15.60;99.90
37478;DHT22;23334;54.316;10.182;2022-10-23T11:37:28;15.30;99.90
37478;DHT22;23334;54.316;10.182;2022-10-23T11:40:15;15.10;99.90
37478;DHT22;23334;54.316;10.182;2022-10-23T11:48:01;15.10;99.90
37478;DHT22;23334;54.316;10.182;2022-10-23T11:50:30;15.70;99.90
37478;DHT22;23334;54.316;10.182;2022-10-23T11:52:59;15.20;99.90
37478;DHT22;23334;54.316;10.182;2022-10-23T11:55:27;14.80;99.90
37478;DHT22;23334;54.316;10.182;2022-10-23T11:58:17;15.00;99.90
37478;DHT22;23334;54.316;10.182;2022-10-23T12:01:00;15.40;99.90
37478;DHT22;23334;54.316;10.182;2022-10-23T12:03:37;15.60;99.90
37478;DHT22;23334;54.316;10.182;2022-10-23T12:06:04;15.70;99.90
37478;DHT22;23334;54.316;10.182;2022-10-23T12:08:33;15.40;99.90
37478;DHT22;23334;54.316;10.182;2022-10-23T12:11:00;15.30;99.90
37478;DHT22;23334;54.316;10.182;2022-10-23T12:16:04;15.60;99.90
37478;DHT22;23334;54.316;10.182;2022-10-23T12:18:32;15.70;99.90
37478;DHT22;23334;54.316;10.182;2022-10-23T12:20:59;15.30;99.90
37478;DHT22;23334;54.316;10.182;2022-10-23T12:39:31;15.90;99.90
37478;DHT22;23334;54.316;10.182;2022-10-23T12:41:58;15.70;99.90
37478;DHT22;23334;54.316;10.182;2022-10-23T12:44:26;15.90;99.90
37478;DHT22;23334;54.316;10.182;2022-10-23T12:46:57;16.00;99.90
37478;DHT22;23334;54.316;10.182;2022-10-23T12:49:25;15.80;99.90
37478;DHT22;23334;54.316;10.182;2022-10-23T12:51:59;15.70;99.90
37478;DHT22;23334;54.316;10.182;2022-10-23T12:54:26;15.70;99.90
37478;DHT22;23334;54.316;10.182;2022-10-23T12:56:52;16.20;99.90
37478;DHT22;23334;54.316;10.182;2022-10-23T12:59:30;16.20;99.90
37478;DHT22;23334;54.316;10.182;2022-10-23T13:01:57;16.40;99.90
37478;DHT22;23334;54.316;10.182;2022-10-23T13:04:32;16.10;99.90
37478;DHT22;23334;54.316;10.182;2022-10-23T13:07:00;16.40;99.90
37478;DHT22;23334;54.316;10.182;2022-10-23T13:09:33;16.10;99.90
37478;DHT22;23334;54.316;10.182;2022-10-23T13:12:01;16.30;99.90
37478;DHT22;23334;54.316;10.182;2022-10-23T13:17:01;16.20;99.90
37478;DHT22;23334;54.316;10.182;2022-10-23T13:19:27;16.20;99.90
37478;DHT22;23334;54.316;10.182;2022-10-23T13:21:53;16.00;99.90
37478;DHT22;23334;54.316;10.182;2022-10-23T13:24:19;16.00;99.90
37478;DHT22;23334;54.316;10.182;2022-10-23T13:26:46;16.00;99.90
37478;DHT22;23334;54.316;10.182;2022-10-23T13:29:19;16.00;99.90
37478;DHT22;23334;54.316;10.182;2022-10-23T13:31:46;16.00;99.90
37478;DHT22;23334;54.316;10.182;2022-10-23T13:34:25;16.10;99.90
37478;DHT22;23334;54.316;10.182;2022-10-23T13:39:24;16.10;99.90
37478;DHT22;23334;54.316;10.182;2022-10-23T13:41:50;16.00;99.90
37478;DHT22;23334;54.316;10.182;2022-10-23T13:44:18;16.00;99.90
37478;DHT22;23334;54.316;10.182;2022-10-23T13:46:44;16.20;99.90
37478;DHT22;23334;54.316;10.182;2022-10-23T13:49:10;16.10;99.90
37478;DHT22;23334;54.316;10.182;2022-10-23T13:51:49;16.00;99.90
37478;DHT22;23334;54.316;10.182;2022-10-23T13:54:24;15.90;99.90
37478;DHT22;23334;54.316;10.182;2022-10-23T13:56:52;16.00;99.90
37478;DHT22;23334;54.316;10.182;2022-10-23T13:59:18;16.00;99.90
37478;DHT22;23334;54.316;10.182;2022-10-23T14:01:44;15.70;99.90
37478;DHT22;23334;54.316;10.182;2022-10-23T14:04:11;15.80;99.90
37478;DHT22;23334;54.316;10.182;2022-10-23T14:06:37;15.80;99.90
37478;DHT22;23334;54.316;10.182;2022-10-23T14:09:08;15.70;99.90
37478;DHT22;23334;54.316;10.182;2022-10-23T14:11:34;15.70;99.90
37478;DHT22;23334;54.316;10.182;2022-10-23T14:14:00;15.60;99.90
37478;DHT22;23334;54.316;10.182;2022-10-23T14:16:27;15.60;99.90
37478;DHT22;23334;54.316;10.182;2022-10-23T14:18:53;15.50;99.90
37478;DHT22;23334;54.316;10.182;2022-10-23T14:21:20;15.60;99.90
37478;DHT22;23334;54.316;10.182;2022-10-23T14:23:46;15.40;99.90
37478;DHT22;23334;54.316;10.182;2022-10-23T14:26:15;15.40;99.90
37478;DHT22;23334;54.316;10.182;2022-10-23T14:28:41;15.50;99.90
37478;DHT22;23334;54.316;10.182;2022-10-23T14:31:12;13.30;99.90
37478;DHT22;23334;54.316;10.182;2022-10-23T14:33:38;15.40;99.90
37478;DHT22;23334;54.316;10.182;2022-10-23T14:36:04;15.40;99.90
37478;DHT22;23334;54.316;10.182;2022-10-23T14:38:30;15.20;99.90
37478;DHT22;23334;54.316;10.182;2022-10-23T14:40:55;15.60;99.90
37478;DHT22;23334;54.316;10.182;2022-10-23T14:43:22;15.00;99.90
37478;DHT22;23334;54.316;10.182;2022-10-23T14:45:48;15.00;99.90
37478;DHT22;23334;54.316;10.182;2022-10-23T14:48:13;15.40;99.90
37478;DHT22;23334;54.316;10.182;2022-10-23T14:50:44;15.30;99.90
37478;DHT22;23334;54.316;10.182;2022-10-23T14:53:10;14.80;99.90
37478;DHT22;23334;54.316;10.182;2022-10-23T14:55:36;15.10;99.90
37478;DHT22;23334;54.316;10.182;2022-10-23T14:58:02;14.80;99.90
37478;DHT22;23334;54.316;10.182;2022-10-23T15:00:28;14.70;99.90
37478;DHT22;23334;54.316;10.182;2022-10-23T15:02:53;14.70;99.90
37478;DHT22;23334;54.316;10.182;2022-10-23T15:05:19;14.80;99.90
37478;DHT22;23334;54.316;10.182;2022-10-23T15:07:44;14.90;99.90
37478;DHT22;23334;54.316;10.182;2022-10-23T15:10:10;14.80;99.90
37478;DHT22;23334;54.316;10.182;2022-10-23T15:12:36;14.80;99.90
37478;DHT22;23334;54.316;10.182;2022-10-23T15:15:03;14.80;99.90
37478;DHT22;23334;54.316;10.182;2022-10-23T15:17:28;14.60;99.90
37478;DHT22;23334;54.316;10.182;2022-10-23T15:22:20;14.50;99.90
37478;DHT22;23334;54.316;10.182;2022-10-23T15:24:47;14.20;99.90
37478;DHT22;23334;54.316;10.182;2022-10-23T15:27:12;14.40;99.90
37478;DHT22;23334;54.316;10.182;2022-10-23T15:29:38;14.60;99.90
37478;DHT22;23334;54.316;10.182;2022-10-23T15:32:04;14.50;99.90
37478;DHT22;23334;54.316;10.182;2022-10-23T15:34:30;14.40;99.90
37478;DHT22;23334;54.316;10.182;2022-10-23T15:36:57;14.60;99.90
37478;DHT22;23334;54.316;10.182;2022-10-23T15:39:27;14.40;99.90
37478;DHT22;23334;54.316;10.182;2022-10-23T15:41:54;14.30;99.90
37478;DHT22;23334;54.316;10.182;2022-10-23T15:44:23;14.40;99.90
37478;DHT22;23334;54.316;10.182;2022-10-23T15:46:49;14.00;99.90
37478;DHT22;23334;54.316;10.182;2022-10-23T15:49:16;13.90;99.90
37478;DHT22;23334;54.316;10.182;2022-10-23T15:51:42;14.30;99.90
37478;DHT22;23334;54.316;10.182;2022-10-23T15:54:10;14.00;99.90
37478;DHT22;23334;54.316;10.182;2022-10-23T15:56:40;14.00;99.90
37478;DHT22;23334;54.316;10.182;2022-10-23T15:59:06;14.00;99.90
37478;DHT22;23334;54.316;10.182;2022-10-23T16:01:31;13.90;99.90
37478;DHT22;23334;54.316;10.182;2022-10-23T16:03:57;14.20;99.90
37478;DHT22;23334;54.316;10.182;2022-10-23T16:06:22;13.70;99.90
37478;DHT22;23334;54.316;10.182;2022-10-23T16:08:48;13.80;99.90
37478;DHT22;23334;54.316;10.182;2022-10-23T16:11:22;13.80;99.90
37478;DHT22;23334;54.316;10.182;2022-10-23T16:13:48;13.60;99.90
37478;DHT22;23334;54.316;10.182;2022-10-23T16:16:14;13.80;99.90
37478;DHT22;23334;54.316;10.182;2022-10-23T16:18:40;13.50;99.90
37478;DHT22;23334;54.316;10.182;2022-10-23T16:21:06;13.80;99.90
37478;DHT22;23334;54.316;10.182;2022-10-23T16:23:32;13.70;99.90
37478;DHT22;23334;54.316;10.182;2022-10-23T16:26:04;14.00;99.90
37478;DHT22;23334;54.316;10.182;2022-10-23T16:28:31;13.60;99.90
37478;DHT22;23334;54.316;10.182;2022-10-23T16:30:58;13.80;99.90
37478;DHT22;23334;54.316;10.182;2022-10-23T16:33:24;13.60;99.90
37478;DHT22;23334;54.316;10.182;2022-10-23T16:35:49;13.90;99.90
37478;DHT22;23334;54.316;10.182;2022-10-23T16:38:15;13.60;99.90
37478;DHT22;23334;54.316;10.182;2022-10-23T16:43:06;13.60;99.90
37478;DHT22;23334;54.316;10.182;2022-10-23T16:45:32;13.40;99.90
37478;DHT22;23334;54.316;10.182;2022-10-23T16:47:57;13.90;99.90
37478;DHT22;23334;54.316;10.182;2022-10-23T16:50:23;13.80;99.90
37478;DHT22;23334;54.316;10.182;2022-10-23T16:52:48;13.40;99.90
37478;DHT22;23334;54.316;10.182;2022-10-23T16:55:14;13.50;99.90
37478;DHT22;23334;54.316;10.182;2022-10-23T16:57:39;13.70;99.90
37478;DHT22;23334;54.316;10.182;2022-10-23T17:00:05;13.60;99.90
37478;DHT22;23334;54.316;10.182;2022-10-23T17:02:31;13.40;99.90
37478;DHT22;23334;54.316;10.182;2022-10-23T17:04:57;13.30;99.90
37478;DHT22;23334;54.316;10.182;2022-10-23T17:07:22;13.50;99.90
37478;DHT22;23334;54.316;10.182;2022-10-23T17:09:48;13.60;99.90
37478;DHT22;23334;54.316;10.182;2022-10-23T17:12:15;13.40;99.90
37478;DHT22;23334;54.316;10.182;2022-10-23T17:14:41;13.50;99.90
37478;DHT22;23334;54.316;10.182;2022-10-23T17:17:06;13.50;99.90
37478;DHT22;23334;54.316;10.182;2022-10-23T17:19:34;13.50;99.90
37478;DHT22;23334;54.316;10.182;2022-10-23T17:22:00;13.90;99.90
37478;DHT22;23334;54.316;10.182;2022-10-23T17:24:26;13.50;99.90
37478;DHT22;23334;54.316;10.182;2022-10-23T17:26:52;13.30;99.90
37478;DHT22;23334;54.316;10.182;2022-10-23T17:29:18;13.50;99.90
37478;DHT22;23334;54.316;10.182;2022-10-23T17:31:46;13.50;99.90
37478;DHT22;23334;54.316;10.182;2022-10-23T17:34:15;13.40;99.90
37478;DHT22;23334;54.316;10.182;2022-10-23T17:36:43;13.40;99.90
37478;DHT22;23334;54.316;10.182;2022-10-23T17:39:12;13.20;99.90
37478;DHT22;23334;54.316;10.182;2022-10-23T17:41:38;13.50;99.90
37478;DHT22;23334;54.316;10.182;2022-10-23T17:44:04;13.20;99.90
37478;DHT22;23334;54.316;10.182;2022-10-23T17:46:29;13.40;99.90
37478;DHT22;23334;54.316;10.182;2022-10-23T17:48:57;13.50;99.90
37478;DHT22;23334;54.316;10.182;2022-10-23T17:51:24;13.30;99.90
37478;DHT22;23334;54.316;10.182;2022-10-23T17:53:51;13.60;99.90
37478;DHT22;23334;54.316;10.182;2022-10-23T17:56:22;13.90;99.90
37478;DHT22;23334;54.316;10.182;2022-10-23T17:58:49;13.50;99.90
37478;DHT22;23334;54.316;10.182;2022-10-23T18:01:19;13.50;99.90
37478;DHT22;23334;54.316;10.182;2022-10-23T18:03:45;13.50;99.90
37478;DHT22;23334;54.316;10.182;2022-10-23T18:06:12;13.90;99.90
37478;DHT22;23334;54.316;10.182;2022-10-23T18:08:39;13.30;99.90
37478;DHT22;23334;54.316;10.182;2022-10-23T18:11:05;13.60;99.90
37478;DHT22;23334;54.316;10.182;2022-10-23T18:13:32;13.40;99.90
37478;DHT22;23334;54.316;10.182;2022-10-23T18:16:03;13.20;99.90
37478;DHT22;23334;54.316;10.182;2022-10-23T18:18:29;13.40;99.90
37478;DHT22;23334;54.316;10.182;2022-10-23T18:20:59;13.80;99.90
37478;DHT22;23334;54.316;10.182;2022-10-23T18:23:26;13.50;99.90
37478;DHT22;23334;54.316;10.182;2022-10-23T18:25:52;13.30;99.90
37478;DHT22;23334;54.316;10.182;2022-10-23T18:28:18;13.40;99.90
37478;DHT22;23334;54.316;10.182;2022-10-23T18:30:44;13.40;99.90
37478;DHT22;23334;54.316;10.182;2022-10-23T18:33:10;13.20;99.90
37478;DHT22;23334;54.316;10.182;2022-10-23T18:35:35;13.50;99.90
37478;DHT22;23334;54.316;10.182;2022-10-23T18:38:02;13.60;99.90
37478;DHT22;23334;54.316;10.182;2022-10-23T18:40:29;13.30;99.90
37478;DHT22;23334;54.316;10.182;2022-10-23T18:42:54;13.40;99.90
37478;DHT22;23334;54.316;10.182;2022-10-23T18:45:20;13.60;99.90
37478;DHT22;23334;54.316;10.182;2022-10-23T18:47:45;13.60;99.90
37478;DHT22;23334;54.316;10.182;2022-10-23T18:50:11;13.50;99.90
37478;DHT22;23334;54.316;10.182;2022-10-23T18:52:37;13.30;99.90
37478;DHT22;23334;54.316;10.182;2022-10-23T18:55:04;13.40;99.90
37478;DHT22;23334;54.316;10.182;2022-10-23T18:59:58;13.50;99.90
37478;DHT22;23334;54.316;10.182;2022-10-23T19:02:24;13.70;99.90
37478;DHT22;23334;54.316;10.182;2022-10-23T19:04:49;13.60;99.90
37478;DHT22;23334;54.316;10.182;2022-10-23T19:07:15;13.90;99.90
37478;DHT22;23334;54.316;10.182;2022-10-23T19:09:41;13.70;99.90
37478;DHT22;23334;54.316;10.182;2022-10-23T19:12:07;13.80;99.90
37478;DHT22;23334;54.316;10.182;2022-10-23T19:14:33;13.70;99.90
37478;DHT22;23334;54.316;10.182;2022-10-23T19:17:00;13.80;99.90